sensor_id;sensor_type;location;lat;lon;timestamp;pressure;altitude;pressure_sealevel;temperature;humidity
66547;BME280;53400;50.364;14.874;2022-10-16T00:01:13;98608.59;;;13.23;100.00
66547;BME280;53400;50.364;14.874;2022-10-16T00:03:41;98600.13;;;13.46;100.00
66547;BME280;53400;50.364;14.874;2022-10-16T00:06:07;98608.69;;;13.38;100.00
66547;BME280;53400;50.364;14.874;2022-10-16T00:08:34;98606.84;;;13.54;100.00
66547;BME280;53400;50.364;14.874;2022-10-16T00:11:02;98610.38;;;13.54;100.00
66547;BME280;53400;50.364;14.874;2022-10-16T00:13:30;98612.84;;;13.71;100.00
66547;BME280;53400;50.364;14.874;2022-10-16T00:15:57;98608.28;;;13.87;100.00
66547;BME280;53400;50.364;14.874;2022-10-16T00:18:24;98605.59;;;13.82;100.00
66547;BME280;53400;50.364;14.874;2022-10-16T00:20:50;98609.59;;;13.69;100.00
66547;BME280;53400;50.364;14.874;2022-10-16T00:23:16;98608.25;;;13.72;100.00
66547;BME280;53400;50.364;14.874;2022-10-16T00:25:42;98605.28;;;13.63;100.00
66547;BME280;53400;50.364;14.874;2022-10-16T00:28:08;98607.50;;;13.82;100.00
66547;BME280;53400;50.364;14.874;2022-10-16T00:30:37;98610.41;;;13.75;100.00
66547;BME280;53400;50.364;14.874;2022-10-16T00:33:03;98599.63;;;13.60;100.00
66547;BME280;53400;50.364;14.874;2022-10-16T00:35:30;98602.50;;;13.38;100.00
66547;BME280;53400;50.364;14.874;2022-10-16T00:37:56;98605.41;;;13.26;100.00
66547;BME280;53400;50.364;14.874;2022-10-16T00:40:22;98609.34;;;13.03;100.00
66547;BME280;53400;50.364;14.874;2022-10-16T00:42:48;98610.66;;;13.05;100.00
66547;BME280;53400;50.364;14.874;2022-10-16T00:45:14;98608.41;;;12.87;100.00
66547;BME280;53400;50.364;14.874;2022-10-16T00:47:43;98608.38;;;12.77;100.00
66547;BME280;53400;50.364;14.874;2022-10-16T00:50:13;98614.34;;;12.89;100.00
66547;BME280;53400;50.364;14.874;2022-10-16T00:52:46;98622.19;;;12.96;100.00
66547;BME280;53400;50.364;14.874;2022-10-16T00:55:12;98625.38;;;12.93;100.00
66547;BME280;53400;50.364;14.874;2022-10-16T00:57:39;98632.69;;;13.02;100.00
66547;BME280;53400;50.364;14.874;2022-10-16T01:00:07;98640.34;;;13.21;100.00
66547;BME280;53400;50.364;14.874;2022-10-16T01:02:33;98639.66;;;13.41;100.00
66547;BME280;53400;50.364;14.874;2022-10-16T01:05:02;98635.69;;;13.59;100.00
66547;BME280;53400;50.364;14.874;2022-10-16T01:07:37;98634.31;;;13.56;100.00
66547;BME280;53400;50.364;14.874;2022-10-16T01:10:14;98635.66;;;13.53;100.00
66547;BME280;53400;50.364;14.874;2022-10-16T01:12:47;98641.03;;;13.48;100.00
66547;BME280;53400;50.364;14.874;2022-10-16T01:15:20;98644.50;;;13.44;100.00
66547;BME280;53400;50.364;14.874;2022-10-16T01:17:53;98654.25;;;13.65;100.00
66547;BME280;53400;50.364;14.874;2022-10-16T01:20:27;98643.25;;;13.67;100.00
66547;BME280;53400;50.364;14.874;2022-10-16T01:23:15;98639.50;;;13.73;100.00
66547;BME280;53400;50.364;14.874;2022-10-16T01:25:57;98662.31;;;13.55;100.00
66547;BME280;53400;50.364;14.874;2022-10-16T01:28:34;98638.94;;;13.61;100.00
66547;BME280;53400;50.364;14.874;2022-10-16T01:31:02;98653.91;;;13.41;100.00
66547;BME280;53400;50.364;14.874;2022-10-16T01:33:33;98657.41;;;13.42;100.00
66547;BME280;53400;50.364;14.874;2022-10-16T01:36:03;98662.81;;;13.47;100.00
66547;BME280;53400;50.364;14.874;2022-10-16T01:38:34;98653.72;;;13.63;100.00
66547;BME280;53400;50.364;14.874;2022-10-16T01:41:03;98650.78;;;13.65;100.00
66547;BME280;53400;50.364;14.874;2022-10-16T01:43:36;98643.31;;;13.24;100.00
66547;BME280;53400;50.364;14.874;2022-10-16T01:46:05;98638.06;;;13.02;100.00
66547;BME280;53400;50.364;14.874;2022-10-16T01:48:32;98641.19;;;12.84;100.00
66547;BME280;53400;50.364;14.874;2022-10-16T01:51:03;98649.88;;;12.96;100.00
66547;BME280;53400;50.364;14.874;2022-10-16T01:53:32;98647.28;;;13.12;100.00
66547;BME280;53400;50.364;14.874;2022-10-16T01:55:59;98642.81;;;13.27;100.00
66547;BME280;53400;50.364;14.874;2022-10-16T01:58:27;98640.16;;;13.38;100.00
66547;BME280;53400;50.364;14.874;2022-10-16T02:00:57;98634.59;;;13.54;100.00
66547;BME280;53400;50.364;14.874;2022-10-16T02:03:23;98626.28;;;13.61;100.00
66547;BME280;53400;50.364;14.874;2022-10-16T02:05:51;98631.38;;;13.63;100.00
66547;BME280;53400;50.364;14.874;2022-10-16T02:08:20;98626.69;;;13.27;100.00
66547;BME280;53400;50.364;14.874;2022-10-16T02:10:46;98630.47;;;13.31;100.00
66547;BME280;53400;50.364;14.874;2022-10-16T02:13:15;98624.75;;;13.18;100.00
66547;BME280;53400;50.364;14.874;2022-10-16T02:15:42;98625.22;;;13.09;100.00
66547;BME280;53400;50.364;14.874;2022-10-16T02:18:10;98625.41;;;12.98;100.00
66547;BME280;53400;50.364;14.874;2022-10-16T02:20:42;98625.19;;;13.04;100.00
66547;BME280;53400;50.364;14.874;2022-10-16T02:23:12;98626.97;;;12.89;100.00
66547;BME280;53400;50.364;14.874;2022-10-16T02:25:44;98627.03;;;12.94;100.00
66547;BME280;53400;50.364;14.874;2022-10-16T02:28:14;98633.53;;;13.03;100.00
66547;BME280;53400;50.364;14.874;2022-10-16T02:30:45;98635.28;;;13.29;100.00
66547;BME280;53400;50.364;14.874;2022-10-16T02:33:16;98623.91;;;13.17;100.00
66547;BME280;53400;50.364;14.874;2022-10-16T02:35:44;98633.84;;;13.12;100.00
66547;BME280;53400;50.364;14.874;2022-10-16T02:38:12;98637.66;;;13.21;100.00
66547;BME280;53400;50.364;14.874;2022-10-16T02:40:39;98643.34;;;13.29;100.00
66547;BME280;53400;50.364;14.874;2022-10-16T02:43:06;98645.09;;;13.56;100.00
66547;BME280;53400;50.364;14.874;2022-10-16T02:45:32;98655.28;;;13.49;100.00
66547;BME280;53400;50.364;14.874;2022-10-16T02:47:58;98662.56;;;13.53;100.00
66547;BME280;53400;50.364;14.874;2022-10-16T02:50:26;98651.56;;;13.65;100.00
66547;BME280;53400;50.364;14.874;2022-10-16T02:52:52;98656.72;;;13.77;100.00
66547;BME280;53400;50.364;14.874;2022-10-16T02:55:17;98653.69;;;13.53;100.00
66547;BME280;53400;50.364;14.874;2022-10-16T02:57:43;98651.31;;;13.14;100.00
66547;BME280;53400;50.364;14.874;2022-10-16T03:00:12;98655.13;;;12.81;100.00
66547;BME280;53400;50.364;14.874;2022-10-16T03:02:38;98648.34;;;12.68;100.00
66547;BME280;53400;50.364;14.874;2022-10-16T03:05:05;98647.25;;;12.64;100.00
66547;BME280;53400;50.364;14.874;2022-10-16T03:07:33;98645.06;;;12.61;100.00
66547;BME280;53400;50.364;14.874;2022-10-16T03:09:58;98651.47;;;12.55;100.00
66547;BME280;53400;50.364;14.874;2022-10-16T03:12:25;98653.09;;;12.56;100.00
66547;BME280;53400;50.364;14.874;2022-10-16T03:14:52;98645.47;;;12.43;100.00
66547;BME280;53400;50.364;14.874;2022-10-16T03:17:18;98651.94;;;12.47;100.00
66547;BME280;53400;50.364;14.874;2022-10-16T03:19:44;98661.47;;;12.32;100.00
66547;BME280;53400;50.364;14.874;2022-10-16T03:22:10;98667.31;;;12.51;100.00
66547;BME280;53400;50.364;14.874;2022-10-16T03:24:37;98668.75;;;12.64;100.00
66547;BME280;53400;50.364;14.874;2022-10-16T03:27:03;98677.47;;;12.81;100.00
66547;BME280;53400;50.364;14.874;2022-10-16T03:29:29;98680.97;;;12.82;100.00
66547;BME280;53400;50.364;14.874;2022-10-16T03:31:55;98677.03;;;12.95;100.00
66547;BME280;53400;50.364;14.874;2022-10-16T03:34:21;98674.44;;;13.10;100.00
66547;BME280;53400;50.364;14.874;2022-10-16T03:36:47;98682.28;;;13.22;100.00
66547;BME280;53400;50.364;14.874;2022-10-16T03:39:13;98675.84;;;13.23;100.00
66547;BME280;53400;50.364;14.874;2022-10-16T03:41:40;98683.06;;;13.17;100.00
66547;BME280;53400;50.364;14.874;2022-10-16T03:44:06;98687.50;;;13.34;100.00
66547;BME280;53400;50.364;14.874;2022-10-16T03:46:32;98689.16;;;13.40;100.00
66547;BME280;53400;50.364;14.874;2022-10-16T03:48:58;98689.16;;;13.40;100.00
66547;BME280;53400;50.364;14.874;2022-10-16T03:51:24;98687.56;;;13.49;100.00
66547;BME280;53400;50.364;14.874;2022-10-16T03:53:50;98685.94;;;13.43;100.00
66547;BME280;53400;50.364;14.874;2022-10-16T03:56:16;98688.91;;;13.46;100.00
66547;BME280;53400;50.364;14.874;2022-10-16T03:58:43;98695.00;;;13.31;100.00
66547;BME280;53400;50.364;14.874;2022-10-16T04:01:09;98690.47;;;12.95;100.00
66547;BME280;53400;50.364;14.874;2022-10-16T04:03:34;98695.59;;;13.01;100.00
66547;BME280;53400;50.364;14.874;2022-10-16T04:06:00;98693.53;;;13.14;100.00
66547;BME280;53400;50.364;14.874;2022-10-16T04:08:26;98698.69;;;13.20;100.00
66547;BME280;53400;50.364;14.874;2022-10-16T04:10:52;98706.81;;;12.93;100.00
66547;BME280;53400;50.364;14.874;2022-10-16T04:13:18;98714.41;;;13.01;100.00
66547;BME280;53400;50.364;14.874;2022-10-16T04:15:45;98713.81;;;13.26;100.00
66547;BME280;53400;50.364;14.874;2022-10-16T04:18:11;98724.00;;;13.24;100.00
66547;BME280;53400;50.364;14.874;2022-10-16T04:20:37;98715.97;;;13.29;100.00
66547;BME280;53400;50.364;14.874;2022-10-16T04:23:04;98710.56;;;13.24;100.00
66547;BME280;53400;50.364;14.874;2022-10-16T04:25:30;98718.56;;;13.19;100.00
66547;BME280;53400;50.364;14.874;2022-10-16T04:27:56;98707.41;;;13.38;100.00
66547;BME280;53400;50.364;14.874;2022-10-16T04:30:22;98724.38;;;13.38;100.00
66547;BME280;53400;50.364;14.874;2022-10-16T04:32:50;98723.06;;;13.46;100.00
66547;BME280;53400;50.364;14.874;2022-10-16T04:35:16;98728.19;;;13.10;100.00
66547;BME280;53400;50.364;14.874;2022-10-16T04:37:42;98731.97;;;13.14;100.00
66547;BME280;53400;50.364;14.874;2022-10-16T04:40:09;98733.88;;;13.14;100.00
66547;BME280;53400;50.364;14.874;2022-10-16T04:42:34;98738.63;;;13.39;100.00
66547;BME280;53400;50.364;14.874;2022-10-16T04:45:00;98738.16;;;13.52;100.00
66547;BME280;53400;50.364;14.874;2022-10-16T04:47:26;98742.09;;;13.34;100.00
66547;BME280;53400;50.364;14.874;2022-10-16T04:49:54;98734.81;;;13.29;100.00
66547;BME280;53400;50.364;14.874;2022-10-16T04:52:19;98742.59;;;13.26;100.00
66547;BME280;53400;50.364;14.874;2022-10-16T04:54:47;98742.63;;;12.94;100.00
66547;BME280;53400;50.364;14.874;2022-10-16T04:57:12;98737.28;;;13.04;100.00
66547;BME280;53400;50.364;14.874;2022-10-16T04:59:38;98730.81;;;13.00;100.00
66547;BME280;53400;50.364;14.874;2022-10-16T05:02:04;98723.28;;;12.97;100.00
66547;BME280;53400;50.364;14.874;2022-10-16T05:04:30;98717.72;;;13.14;100.00
66547;BME280;53400;50.364;14.874;2022-10-16T05:06:57;98715.16;;;13.29;100.00
66547;BME280;53400;50.364;14.874;2022-10-16T05:09:23;98718.88;;;13.23;100.00
66547;BME280;53400;50.364;14.874;2022-10-16T05:11:49;98706.84;;;13.36;100.00
66547;BME280;53400;50.364;14.874;2022-10-16T05:14:15;98716.84;;;13.40;100.00
66547;BME280;53400;50.364;14.874;2022-10-16T05:16:41;98723.97;;;13.19;100.00
66547;BME280;53400;50.364;14.874;2022-10-16T05:19:07;98717.41;;;13.42;100.00
66547;BME280;53400;50.364;14.874;2022-10-16T05:21:33;98716.06;;;13.45;100.00
66547;BME280;53400;50.364;14.874;2022-10-16T05:24:00;98719.06;;;13.48;100.00
66547;BME280;53400;50.364;14.874;2022-10-16T05:26:26;98719.34;;;13.52;100.00
66547;BME280;53400;50.364;14.874;2022-10-16T05:28:52;98723.63;;;13.53;100.00
66547;BME280;53400;50.364;14.874;2022-10-16T05:31:18;98739.53;;;13.60;100.00
66547;BME280;53400;50.364;14.874;2022-10-16T05:33:44;98746.91;;;13.27;100.00
66547;BME280;53400;50.364;14.874;2022-10-16T05:36:10;98752.66;;;13.46;100.00
66547;BME280;53400;50.364;14.874;2022-10-16T05:38:36;98753.53;;;13.57;100.00
66547;BME280;53400;50.364;14.874;2022-10-16T05:41:04;98746.31;;;13.72;100.00
66547;BME280;53400;50.364;14.874;2022-10-16T05:43:32;98757.94;;;13.78;100.00
66547;BME280;53400;50.364;14.874;2022-10-16T05:46:00;98756.88;;;13.79;100.00
66547;BME280;53400;50.364;14.874;2022-10-16T05:48:27;98761.09;;;13.65;100.00
66547;BME280;53400;50.364;14.874;2022-10-16T05:50:59;98763.34;;;13.83;100.00
66547;BME280;53400;50.364;14.874;2022-10-16T05:53:27;98761.50;;;13.89;100.00
66547;BME280;53400;50.364;14.874;2022-10-16T05:55:53;98759.56;;;13.84;100.00
66547;BME280;53400;50.364;14.874;2022-10-16T05:58:21;98765.50;;;13.86;100.00
66547;BME280;53400;50.364;14.874;2022-10-16T06:00:53;98772.81;;;13.91;100.00
66547;BME280;53400;50.364;14.874;2022-10-16T06:03:19;98770.06;;;13.75;100.00
66547;BME280;53400;50.364;14.874;2022-10-16T06:05:45;98759.28;;;13.75;100.00
66547;BME280;53400;50.364;14.874;2022-10-16T06:08:11;98776.44;;;13.69;100.00
66547;BME280;53400;50.364;14.874;2022-10-16T06:10:38;98778.81;;;13.56;100.00
66547;BME280;53400;50.364;14.874;2022-10-16T06:13:04;98779.19;;;13.27;100.00
66547;BME280;53400;50.364;14.874;2022-10-16T06:15:31;98782.13;;;13.25;100.00
66547;BME280;53400;50.364;14.874;2022-10-16T06:17:57;98783.75;;;12.99;100.00
66547;BME280;53400;50.364;14.874;2022-10-16T06:20:23;98796.88;;;12.91;100.00
66547;BME280;53400;50.364;14.874;2022-10-16T06:22:49;98797.47;;;12.98;100.00
66547;BME280;53400;50.364;14.874;2022-10-16T06:25:15;98804.59;;;13.14;100.00
66547;BME280;53400;50.364;14.874;2022-10-16T06:27:41;98804.50;;;13.31;100.00
66547;BME280;53400;50.364;14.874;2022-10-16T06:30:08;98807.03;;;13.16;100.00
66547;BME280;53400;50.364;14.874;2022-10-16T06:32:36;98814.72;;;13.34;100.00
66547;BME280;53400;50.364;14.874;2022-10-16T06:35:02;98825.56;;;13.44;100.00
66547;BME280;53400;50.364;14.874;2022-10-16T06:37:28;98826.06;;;13.36;100.00
66547;BME280;53400;50.364;14.874;2022-10-16T06:39:53;98833.28;;;13.36;100.00
66547;BME280;53400;50.364;14.874;2022-10-16T06:42:19;98833.91;;;13.16;100.00
66547;BME280;53400;50.364;14.874;2022-10-16T06:44:45;98843.28;;;13.40;100.00
66547;BME280;53400;50.364;14.874;2022-10-16T06:47:11;98840.78;;;13.28;100.00
66547;BME280;53400;50.364;14.874;2022-10-16T06:49:38;98847.88;;;13.13;100.00
66547;BME280;53400;50.364;14.874;2022-10-16T06:52:05;98847.25;;;13.32;100.00
66547;BME280;53400;50.364;14.874;2022-10-16T06:54:30;98843.50;;;13.34;100.00
66547;BME280;53400;50.364;14.874;2022-10-16T06:56:57;98846.06;;;13.23;100.00
66547;BME280;53400;50.364;14.874;2022-10-16T06:59:22;98851.53;;;13.01;100.00
66547;BME280;53400;50.364;14.874;2022-10-16T07:01:49;98852.03;;;12.98;100.00
66547;BME280;53400;50.364;14.874;2022-10-16T07:04:15;98858.34;;;13.36;100.00
66547;BME280;53400;50.364;14.874;2022-10-16T07:06:42;98851.94;;;13.47;100.00
66547;BME280;53400;50.364;14.874;2022-10-16T07:09:10;98854.34;;;13.44;100.00
66547;BME280;53400;50.364;14.874;2022-10-16T07:11:36;98856.81;;;13.23;100.00
66547;BME280;53400;50.364;14.874;2022-10-16T07:14:03;98856.97;;;13.34;100.00
66547;BME280;53400;50.364;14.874;2022-10-16T07:16:30;98868.25;;;13.68;100.00
66547;BME280;53400;50.364;14.874;2022-10-16T07:18:57;98864.22;;;13.70;100.00
66547;BME280;53400;50.364;14.874;2022-10-16T07:21:26;98870.78;;;13.90;100.00
66547;BME280;53400;50.364;14.874;2022-10-16T07:23:55;98882.06;;;13.82;100.00
66547;BME280;53400;50.364;14.874;2022-10-16T07:26:22;98886.19;;;13.94;100.00
66547;BME280;53400;50.364;14.874;2022-10-16T07:28:48;98883.97;;;13.86;100.00
66547;BME280;53400;50.364;14.874;2022-10-16T07:31:16;98893.31;;;13.73;100.00
66547;BME280;53400;50.364;14.874;2022-10-16T07:33:43;98893.47;;;13.99;100.00
66547;BME280;53400;50.364;14.874;2022-10-16T07:36:11;98902.72;;;13.71;100.00
66547;BME280;53400;50.364;14.874;2022-10-16T07:38:37;98897.66;;;13.80;100.00
66547;BME280;53400;50.364;14.874;2022-10-16T07:41:06;98903.00;;;13.74;100.00
66547;BME280;53400;50.364;14.874;2022-10-16T07:43:33;98908.13;;;13.76;100.00
66547;BME280;53400;50.364;14.874;2022-10-16T07:46:00;98919.16;;;14.17;100.00
66547;BME280;53400;50.364;14.874;2022-10-16T07:48:27;98915.38;;;14.18;100.00
66547;BME280;53400;50.364;14.874;2022-10-16T07:50:57;98915.38;;;14.18;100.00
66547;BME280;53400;50.364;14.874;2022-10-16T07:53:23;98909.88;;;14.50;100.00
66547;BME280;53400;50.364;14.874;2022-10-16T07:55:49;98918.28;;;14.54;100.00
66547;BME280;53400;50.364;14.874;2022-10-16T07:58:16;98915.44;;;14.91;100.00
66547;BME280;53400;50.364;14.874;2022-10-16T08:00:43;98920.28;;;14.84;100.00
66547;BME280;53400;50.364;14.874;2022-10-16T08:03:08;98924.09;;;14.98;100.00
66547;BME280;53400;50.364;14.874;2022-10-16T08:05:34;98921.63;;;14.86;100.00
66547;BME280;53400;50.364;14.874;2022-10-16T08:08:01;98923.50;;;14.81;100.00
66547;BME280;53400;50.364;14.874;2022-10-16T08:10:28;98932.66;;;14.75;100.00
66547;BME280;53400;50.364;14.874;2022-10-16T08:12:54;98930.44;;;14.61;100.00
66547;BME280;53400;50.364;14.874;2022-10-16T08:15:22;98932.34;;;14.61;100.00
66547;BME280;53400;50.364;14.874;2022-10-16T08:17:54;98923.72;;;14.64;100.00
66547;BME280;53400;50.364;14.874;2022-10-16T08:20:20;98925.06;;;14.66;100.00
66547;BME280;53400;50.364;14.874;2022-10-16T08:22:46;98926.75;;;14.88;100.00
66547;BME280;53400;50.364;14.874;2022-10-16T08:25:12;98937.09;;;15.17;100.00
66547;BME280;53400;50.364;14.874;2022-10-16T08:27:38;98923.84;;;15.15;100.00
66547;BME280;53400;50.364;14.874;2022-10-16T08:30:05;98926.06;;;15.44;100.00
66547;BME280;53400;50.364;14.874;2022-10-16T08:32:32;98918.50;;;15.51;100.00
66547;BME280;53400;50.364;14.874;2022-10-16T08:34:58;98923.91;;;15.56;100.00
66547;BME280;53400;50.364;14.874;2022-10-16T08:37:24;98923.34;;;15.64;100.00
66547;BME280;53400;50.364;14.874;2022-10-16T08:39:50;98936.03;;;15.64;100.00
66547;BME280;53400;50.364;14.874;2022-10-16T08:42:35;98935.00;;;15.75;100.00
66547;BME280;53400;50.364;14.874;2022-10-16T08:48:16;98922.03;;;15.77;100.00
66547;BME280;53400;50.364;14.874;2022-10-16T08:50:43;98923.88;;;15.61;100.00
66547;BME280;53400;50.364;14.874;2022-10-16T08:53:15;98925.22;;;15.28;100.00
66547;BME280;53400;50.364;14.874;2022-10-16T08:55:44;98935.75;;;15.55;100.00
66547;BME280;53400;50.364;14.874;2022-10-16T08:58:12;98939.84;;;15.73;100.00
66547;BME280;53400;50.364;14.874;2022-10-16T09:00:39;98941.69;;;16.08;100.00
66547;BME280;53400;50.364;14.874;2022-10-16T09:03:14;98954.59;;;16.42;100.00
66547;BME280;53400;50.364;14.874;2022-10-16T09:05:54;98940.66;;;15.89;100.00
66547;BME280;53400;50.364;14.874;2022-10-16T09:08:30;98956.00;;;16.14;100.00
66547;BME280;53400;50.364;14.874;2022-10-16T09:11:05;98961.34;;;16.39;100.00
66547;BME280;53400;50.364;14.874;2022-10-16T09:13:39;98956.53;;;16.21;100.00
66547;BME280;53400;50.364;14.874;2022-10-16T09:16:16;98970.53;;;16.48;100.00
66547;BME280;53400;50.364;14.874;2022-10-16T09:18:54;98979.38;;;16.64;100.00
66547;BME280;53400;50.364;14.874;2022-10-16T09:21:25;98969.44;;;16.49;100.00
66547;BME280;53400;50.364;14.874;2022-10-16T09:23:54;98975.06;;;16.68;100.00
66547;BME280;53400;50.364;14.874;2022-10-16T09:26:23;98968.47;;;16.95;100.00
66547;BME280;53400;50.364;14.874;2022-10-16T09:28:51;98956.19;;;17.13;100.00
66547;BME280;53400;50.364;14.874;2022-10-16T09:31:19;98953.84;;;17.01;100.00
66547;BME280;53400;50.364;14.874;2022-10-16T09:33:51;98957.19;;;16.72;100.00
66547;BME280;53400;50.364;14.874;2022-10-16T09:36:19;98955.22;;;16.99;100.00
66547;BME280;53400;50.364;14.874;2022-10-16T09:38:46;98949.38;;;17.26;100.00
66547;BME280;53400;50.364;14.874;2022-10-16T09:41:16;98953.00;;;17.50;100.00
66547;BME280;53400;50.364;14.874;2022-10-16T09:43:48;98964.28;;;17.18;100.00
66547;BME280;53400;50.364;14.874;2022-10-16T09:46:25;98973.06;;;16.94;100.00
66547;BME280;53400;50.364;14.874;2022-10-16T09:48:56;98960.63;;;16.93;100.00
66547;BME280;53400;50.364;14.874;2022-10-16T09:51:26;98961.50;;;17.28;100.00
66547;BME280;53400;50.364;14.874;2022-10-16T09:53:56;98963.47;;;17.23;100.00
66547;BME280;53400;50.364;14.874;2022-10-16T09:56:25;98965.56;;;17.70;100.00
66547;BME280;53400;50.364;14.874;2022-10-16T09:58:52;98967.25;;;17.95;97.13
66547;BME280;53400;50.364;14.874;2022-10-16T10:01:19;98969.91;;;18.05;96.84
66547;BME280;53400;50.364;14.874;2022-10-16T10:03:46;98980.75;;;17.71;98.33
66547;BME280;53400;50.364;14.874;2022-10-16T10:06:22;98984.44;;;17.85;99.63
66547;BME280;53400;50.364;14.874;2022-10-16T10:08:56;98989.81;;;17.91;99.50
66547;BME280;53400;50.364;14.874;2022-10-16T10:11:44;98983.53;;;17.95;99.04
66547;BME280;53400;50.364;14.874;2022-10-16T10:14:21;98973.53;;;18.20;99.41
66547;BME280;53400;50.364;14.874;2022-10-16T10:16:49;98967.69;;;17.78;97.25
66547;BME280;53400;50.364;14.874;2022-10-16T10:19:16;98973.38;;;18.11;96.84
66547;BME280;53400;50.364;14.874;2022-10-16T10:21:44;98964.78;;;18.28;96.15
66547;BME280;53400;50.364;14.874;2022-10-16T10:24:11;98967.53;;;18.52;91.82
66547;BME280;53400;50.364;14.874;2022-10-16T10:26:38;98966.88;;;18.07;97.77
66547;BME280;53400;50.364;14.874;2022-10-16T10:29:14;98966.66;;;17.69;99.80
66547;BME280;53400;50.364;14.874;2022-10-16T10:31:49;98956.13;;;18.26;98.69
66547;BME280;53400;50.364;14.874;2022-10-16T10:34:26;98963.28;;;18.65;96.49
66547;BME280;53400;50.364;14.874;2022-10-16T10:37:04;98955.69;;;18.91;94.92
66547;BME280;53400;50.364;14.874;2022-10-16T10:39:35;98964.84;;;18.95;94.54
66547;BME280;53400;50.364;14.874;2022-10-16T10:42:14;98961.88;;;19.15;93.97
66547;BME280;53400;50.364;14.874;2022-10-16T10:47:38;98955.91;;;19.13;88.65
66547;BME280;53400;50.364;14.874;2022-10-16T10:50:14;98960.53;;;18.94;90.05
66547;BME280;53400;50.364;14.874;2022-10-16T10:52:55;98963.03;;;19.28;90.72
66547;BME280;53400;50.364;14.874;2022-10-16T10:55:29;98964.69;;;19.62;89.58
66547;BME280;53400;50.364;14.874;2022-10-16T10:58:42;98969.31;;;19.80;87.70
66547;BME280;53400;50.364;14.874;2022-10-16T11:01:13;98960.63;;;19.97;86.67
66547;BME280;53400;50.364;14.874;2022-10-16T11:03:57;98951.84;;;19.86;83.88
66547;BME280;53400;50.364;14.874;2022-10-16T11:06:29;98955.00;;;19.93;86.11
66547;BME280;53400;50.364;14.874;2022-10-16T11:09:01;98973.38;;;19.64;88.01
66547;BME280;53400;50.364;14.874;2022-10-16T11:11:34;98966.88;;;19.65;89.04
66547;BME280;53400;50.364;14.874;2022-10-16T11:14:05;98956.72;;;19.70;85.91
66547;BME280;53400;50.364;14.874;2022-10-16T11:16:41;98959.16;;;19.72;89.21
66547;BME280;53400;50.364;14.874;2022-10-16T11:19:13;98960.03;;;19.67;87.50
66547;BME280;53400;50.364;14.874;2022-10-16T11:21:47;98964.94;;;19.46;86.88
66547;BME280;53400;50.364;14.874;2022-10-16T11:24:23;98970.22;;;19.38;86.83
66547;BME280;53400;50.364;14.874;2022-10-16T11:26:54;98974.03;;;19.56;89.43
66547;BME280;53400;50.364;14.874;2022-10-16T11:29:23;98972.44;;;19.74;88.73
66547;BME280;53400;50.364;14.874;2022-10-16T11:31:54;98977.09;;;19.87;87.76
66547;BME280;53400;50.364;14.874;2022-10-16T11:34:25;98970.91;;;19.67;86.56
66547;BME280;53400;50.364;14.874;2022-10-16T11:36:58;98959.22;;;19.67;86.69
66547;BME280;53400;50.364;14.874;2022-10-16T11:39:28;98968.91;;;19.73;87.71
66547;BME280;53400;50.364;14.874;2022-10-16T11:42:01;98965.59;;;19.76;87.49
66547;BME280;53400;50.364;14.874;2022-10-16T11:44:42;98970.66;;;19.83;86.02
66547;BME280;53400;50.364;14.874;2022-10-16T11:47:25;98970.91;;;19.67;87.38
66547;BME280;53400;50.364;14.874;2022-10-16T11:49:57;98968.09;;;19.73;85.43
66547;BME280;53400;50.364;14.874;2022-10-16T11:52:28;98972.50;;;19.87;85.32
66547;BME280;53400;50.364;14.874;2022-10-16T11:55:00;98960.28;;;19.85;83.47
66547;BME280;53400;50.364;14.874;2022-10-16T11:57:31;98967.06;;;19.87;82.66
66547;BME280;53400;50.364;14.874;2022-10-16T11:59:59;98963.09;;;20.26;82.27
66547;BME280;53400;50.364;14.874;2022-10-16T12:02:38;98964.31;;;20.34;80.32
66547;BME280;53400;50.364;14.874;2022-10-16T12:05:18;98958.28;;;20.37;78.33
66547;BME280;53400;50.364;14.874;2022-10-16T12:07:54;98961.28;;;20.22;79.47
66547;BME280;53400;50.364;14.874;2022-10-16T12:10:26;98966.59;;;20.27;79.71
66547;BME280;53400;50.364;14.874;2022-10-16T12:12:52;98957.06;;;20.43;78.09
66547;BME280;53400;50.364;14.874;2022-10-16T12:15:22;98960.69;;;20.25;78.36
66547;BME280;53400;50.364;14.874;2022-10-16T12:17:49;98967.63;;;20.31;79.02
66547;BME280;53400;50.364;14.874;2022-10-16T12:20:25;98959.94;;;20.52;80.53
66547;BME280;53400;50.364;14.874;2022-10-16T12:22:54;98963.03;;;20.45;79.74
66547;BME280;53400;50.364;14.874;2022-10-16T12:25:25;98960.00;;;20.33;79.31
66547;BME280;53400;50.364;14.874;2022-10-16T12:27:55;98960.09;;;20.28;80.54
66547;BME280;53400;50.364;14.874;2022-10-16T12:30:26;98969.44;;;20.35;79.85
66547;BME280;53400;50.364;14.874;2022-10-16T12:32:54;98972.41;;;20.39;79.20
66547;BME280;53400;50.364;14.874;2022-10-16T12:35:22;98968.94;;;20.47;79.17
66547;BME280;53400;50.364;14.874;2022-10-16T12:37:49;98970.06;;;20.46;78.35
66547;BME280;53400;50.364;14.874;2022-10-16T12:40:28;98969.25;;;20.32;79.31
66547;BME280;53400;50.364;14.874;2022-10-16T12:42:55;98969.28;;;20.59;79.33
66547;BME280;53400;50.364;14.874;2022-10-16T12:45:28;98975.94;;;20.95;78.46
66547;BME280;53400;50.364;14.874;2022-10-16T12:47:55;98965.34;;;20.93;76.95
66547;BME280;53400;50.364;14.874;2022-10-16T12:50:31;98964.94;;;20.72;78.72
66547;BME280;53400;50.364;14.874;2022-10-16T12:52:57;98960.44;;;20.68;78.98
66547;BME280;53400;50.364;14.874;2022-10-16T12:55:24;98968.28;;;20.83;76.49
66547;BME280;53400;50.364;14.874;2022-10-16T12:58:03;98977.34;;;21.06;76.71